createdAt,value
2022-09-29T00:01:26.903Z,6.61
2022-09-29T00:03:53.448Z,6.56
2022-09-29T00:06:19.999Z,6.58
2022-09-29T00:08:48.328Z,6.52
2022-09-29T00:11:17.077Z,6.49
2022-09-29T00:13:43.822Z,6.50
2022-09-29T00:16:10.956Z,6.43
2022-09-29T00:18:37.721Z,6.53
2022-09-29T00:21:06.022Z,6.49
2022-09-29T00:23:34.945Z,6.50
2022-09-29T00:26:06.780Z,6.53
2022-09-29T00:28:33.603Z,6.59
2022-09-29T00:31:01.862Z,6.54
2022-09-29T00:33:29.691Z,6.62
2022-09-29T00:35:57.484Z,6.68
2022-09-29T00:38:24.001Z,6.68
2022-09-29T00:40:50.638Z,6.69
2022-09-29T00:43:22.024Z,6.66
2022-09-29T00:45:49.062Z,6.69
2022-09-29T00:48:19.024Z,6.69
2022-09-29T00:50:50.450Z,6.73
2022-09-29T00:53:21.691Z,6.74
2022-09-29T00:55:52.762Z,6.78
2022-09-29T00:58:27.937Z,6.74
2022-09-29T01:00:54.692Z,6.82
2022-09-29T01:03:23.535Z,6.80
2022-09-29T01:05:54.375Z,6.84
2022-09-29T01:08:26.748Z,6.87
2022-09-29T01:10:53.777Z,6.90
2022-09-29T01:13:21.802Z,6.91
2022-09-29T01:15:48.353Z,6.93
2022-09-29T01:18:15.085Z,6.93
2022-09-29T01:20:50.997Z,6.96
2022-09-29T01:24:01.168Z,6.93
2022-09-29T01:26:55.694Z,6.95
2022-09-29T01:30:02.126Z,6.92
2022-09-29T01:32:40.365Z,6.94
2022-09-29T01:35:12.178Z,6.97
2022-09-29T01:37:53.724Z,6.96
2022-09-29T01:40:29.825Z,6.95
2022-09-29T01:43:05.196Z,6.86
2022-09-29T01:45:34.118Z,6.89
2022-09-29T01:48:05.383Z,6.92
2022-09-29T01:50:36.749Z,6.90
2022-09-29T01:53:09.033Z,6.89
2022-09-29T01:55:42.137Z,6.88
2022-09-29T01:58:13.351Z,6.86
2022-09-29T02:00:45.679Z,6.87
2022-09-29T02:03:19.612Z,6.74
2022-09-29T02:05:50.150Z,6.71
2022-09-29T02:08:20.413Z,6.76
2022-09-29T02:10:51.309Z,6.67
2022-09-29T02:13:20.667Z,6.60
2022-09-29T02:15:51.756Z,6.61
2022-09-29T02:18:23.324Z,6.57
2022-09-29T02:20:50.811Z,6.61
2022-09-29T02:23:17.820Z,6.57
2022-09-29T02:25:46.691Z,6.62
2022-09-29T02:28:13.840Z,6.49
2022-09-29T02:30:40.580Z,6.56
2022-09-29T02:33:18.132Z,6.45
2022-09-29T02:35:54.521Z,6.33
2022-09-29T02:38:30.203Z,6.27
2022-09-29T02:41:06.343Z,6.24
2022-09-29T02:43:53.934Z,6.26
2022-09-29T02:46:37.444Z,6.16
2022-09-29T02:49:25.722Z,6.21
2022-09-29T02:51:57.929Z,6.13
2022-09-29T02:54:39.107Z,6.11
2022-09-29T02:57:17.188Z,6.06
2022-09-29T02:59:52.031Z,5.90
2022-09-29T03:02:23.966Z,5.86
2022-09-29T03:04:50.405Z,5.79
2022-09-29T03:07:18.323Z,5.86
2022-09-29T03:09:44.874Z,5.86
2022-09-29T03:12:11.447Z,5.80
2022-09-29T03:14:38.004Z,5.75
2022-09-29T03:17:04.552Z,5.73
2022-09-29T03:19:31.083Z,5.72
2022-09-29T03:21:57.634Z,5.64
2022-09-29T03:24:25.542Z,5.52
2022-09-29T03:26:52.114Z,5.49
2022-09-29T03:29:18.664Z,5.39
2022-09-29T03:31:45.264Z,5.38
2022-09-29T03:34:11.878Z,5.34
2022-09-29T03:36:38.428Z,5.30
2022-09-29T03:39:05.049Z,5.32
2022-09-29T03:41:33.021Z,5.27
2022-09-29T03:43:59.704Z,5.12
2022-09-29T03:46:26.288Z,5.10
2022-09-29T03:48:53.304Z,5.05
2022-09-29T03:51:19.922Z,4.99
2022-09-29T03:53:46.459Z,4.90
2022-09-29T03:56:13.023Z,4.90
2022-09-29T03:58:40.936Z,4.85
2022-09-29T04:01:07.686Z,4.91
2022-09-29T04:03:34.369Z,4.99
2022-09-29T04:06:00.930Z,4.90
2022-09-29T04:08:27.509Z,4.89
2022-09-29T04:10:54.082Z,4.99
2022-09-29T04:13:20.628Z,4.99
2022-09-29T04:15:49.017Z,4.97
2022-09-29T04:18:16.377Z,5.00
2022-09-29T04:20:42.937Z,5.03
2022-09-29T04:23:09.488Z,5.10
2022-09-29T04:25:36.047Z,5.06
2022-09-29T04:28:03.359Z,4.97
2022-09-29T04:30:29.919Z,4.99
2022-09-29T04:32:57.788Z,5.00
2022-09-29T04:35:24.353Z,4.92
2022-09-29T04:37:54.872Z,4.86
2022-09-29T04:40:21.506Z,4.83
2022-09-29T04:42:48.057Z,4.92
2022-09-29T04:45:14.859Z,4.96
2022-09-29T04:47:41.536Z,4.86
2022-09-29T04:50:09.849Z,4.90
2022-09-29T04:52:36.772Z,4.89
2022-09-29T04:55:04.016Z,4.92
2022-09-29T04:57:30.577Z,4.94
2022-09-29T04:59:57.121Z,5.00
2022-09-29T05:02:23.715Z,5.00
2022-09-29T05:04:50.308Z,4.96
2022-09-29T05:07:18.221Z,4.89
2022-09-29T05:09:44.792Z,4.85
2022-09-29T05:12:11.323Z,4.86
2022-09-29T05:14:37.863Z,4.91
2022-09-29T05:17:04.438Z,5.02
2022-09-29T05:19:31.032Z,5.00
2022-09-29T05:21:57.712Z,5.17
2022-09-29T05:24:25.602Z,5.16
2022-09-29T05:26:57.499Z,5.13
2022-09-29T05:29:25.068Z,5.18
2022-09-29T05:31:51.721Z,5.24
2022-09-29T05:34:18.358Z,5.27
2022-09-29T05:36:45.098Z,5.30
2022-09-29T05:39:11.696Z,5.35
2022-09-29T05:41:39.610Z,5.42
2022-09-29T05:44:06.387Z,5.53
2022-09-29T05:46:32.943Z,5.67
2022-09-29T05:48:59.503Z,5.74
2022-09-29T05:51:26.296Z,5.82
2022-09-29T05:53:53.963Z,5.87
2022-09-29T05:56:22.584Z,5.97
2022-09-29T05:58:51.174Z,6.02
2022-09-29T06:01:19.400Z,6.12
2022-09-29T06:03:46.017Z,6.13
2022-09-29T06:06:14.524Z,6.23
2022-09-29T06:08:41.639Z,6.27
2022-09-29T06:11:10.091Z,6.40
2022-09-29T06:13:38.159Z,6.42
2022-09-29T06:16:06.598Z,6.47
2022-09-29T06:18:33.203Z,6.39
2022-09-29T06:21:03.683Z,6.50
2022-09-29T06:23:30.195Z,6.64
2022-09-29T06:25:57.796Z,6.74
2022-09-29T06:28:24.672Z,6.76
2022-09-29T06:30:51.526Z,6.81
2022-09-29T06:33:19.508Z,6.95
2022-09-29T06:35:46.839Z,6.97
2022-09-29T06:38:13.416Z,6.98
2022-09-29T06:40:40.050Z,7.06
2022-09-29T06:43:06.599Z,7.10
2022-09-29T06:45:33.184Z,7.15
2022-09-29T06:48:00.132Z,6.98
2022-09-29T06:50:28.077Z,7.17
2022-09-29T06:53:03.470Z,7.38
2022-09-29T06:55:30.868Z,7.60
2022-09-29T06:58:01.422Z,7.73
2022-09-29T07:00:30.205Z,7.88
2022-09-29T07:02:56.715Z,7.88
2022-09-29T07:05:23.252Z,7.88
2022-09-29T07:07:53.205Z,8.11
2022-09-29T07:10:21.243Z,8.04
2022-09-29T07:12:47.810Z,7.97
2022-09-29T07:15:14.561Z,8.16
2022-09-29T07:17:41.131Z,8.42
2022-09-29T07:20:08.372Z,8.66
2022-09-29T07:22:34.906Z,8.63
2022-09-29T07:25:02.904Z,8.37
2022-09-29T07:27:29.437Z,8.22
2022-09-29T07:30:02.844Z,8.28
2022-09-29T07:32:30.781Z,8.22
2022-09-29T07:34:57.371Z,8.50
2022-09-29T07:37:23.928Z,8.64
2022-09-29T07:39:50.479Z,8.59
2022-09-29T07:42:18.385Z,8.53
2022-09-29T07:44:47.941Z,8.73
2022-09-29T07:47:18.062Z,8.81
2022-09-29T07:49:44.615Z,8.88
2022-09-29T07:52:12.931Z,8.72
2022-09-29T07:54:39.638Z,8.62
2022-09-29T07:57:06.184Z,8.72
2022-09-29T07:59:34.182Z,8.77
2022-09-29T08:02:00.762Z,8.80
2022-09-29T08:04:27.348Z,9.02
2022-09-29T08:06:53.879Z,9.11
2022-09-29T08:09:21.899Z,9.19
2022-09-29T08:11:56.868Z,9.22
2022-09-29T08:14:26.367Z,9.20
2022-09-29T08:16:56.356Z,9.27
2022-09-29T08:19:23.172Z,9.37
2022-09-29T08:21:49.746Z,9.59
2022-09-29T08:24:16.847Z,9.68
2022-09-29T08:26:44.556Z,9.70
2022-09-29T08:29:16.002Z,9.56
2022-09-29T08:31:43.826Z,9.64
2022-09-29T08:34:11.835Z,9.83
2022-09-29T08:36:38.359Z,9.92
2022-09-29T08:39:04.896Z,9.96
2022-09-29T08:41:44.420Z,9.80
2022-09-29T08:44:34.387Z,9.79
2022-09-29T08:47:12.565Z,9.80
2022-09-29T08:49:43.946Z,9.78
2022-09-29T08:52:17.117Z,10.01
2022-09-29T08:54:48.656Z,9.98
2022-09-29T08:57:19.129Z,10.01
2022-09-29T08:59:51.620Z,10.18
2022-09-29T09:03:00.998Z,10.02
2022-09-29T09:06:03.955Z,10.08
2022-09-29T09:08:47.638Z,10.34
2022-09-29T09:11:32.200Z,10.24
2022-09-29T09:14:13.680Z,10.05
2022-09-29T09:16:49.031Z,9.85
2022-09-29T09:19:42.400Z,10.26
2022-09-29T09:22:20.459Z,10.35
2022-09-29T09:24:51.248Z,10.56
2022-09-29T09:27:24.324Z,10.49
2022-09-29T09:30:00.340Z,10.62
2022-09-29T09:32:30.305Z,10.61
2022-09-29T09:35:16.382Z,10.64
2022-09-29T09:37:50.730Z,10.86
2022-09-29T09:40:20.868Z,10.46
2022-09-29T09:42:52.474Z,10.60
2022-09-29T09:45:27.053Z,10.45
2022-09-29T09:47:59.450Z,10.56
2022-09-29T09:50:26.587Z,10.80
2022-09-29T09:53:00.480Z,11.10
2022-09-29T09:55:27.867Z,11.24
2022-09-29T09:58:07.434Z,11.25
2022-09-29T10:00:39.132Z,11.40
2022-09-29T10:03:08.366Z,11.68
2022-09-29T10:05:37.773Z,11.65
2022-09-29T10:08:07.182Z,11.88
2022-09-29T10:10:33.843Z,12.18
2022-09-29T10:13:03.868Z,12.13
2022-09-29T10:15:36.233Z,12.02
2022-09-29T10:18:10.805Z,11.65
2022-09-29T10:20:38.737Z,11.67
2022-09-29T10:23:25.319Z,11.69
2022-09-29T10:25:54.732Z,11.63
2022-09-29T10:28:22.972Z,11.52
2022-09-29T10:30:49.857Z,11.77
2022-09-29T10:33:20.482Z,11.50
2022-09-29T10:35:48.434Z,11.39
2022-09-29T10:38:24.016Z,11.58
2022-09-29T10:40:54.554Z,11.61
2022-09-29T10:43:24.635Z,11.75
2022-09-29T10:45:51.418Z,12.30
2022-09-29T10:48:19.152Z,12.38
2022-09-29T10:50:51.265Z,12.30
2022-09-29T10:53:28.503Z,11.94
2022-09-29T10:55:57.225Z,12.30
2022-09-29T10:58:45.383Z,12.11
2022-09-29T11:01:16.714Z,11.99
2022-09-29T11:03:49.200Z,12.27
2022-09-29T11:06:16.971Z,12.79
2022-09-29T11:09:06.780Z,12.77
2022-09-29T11:11:36.244Z,13.03
2022-09-29T11:14:03.423Z,13.09
2022-09-29T11:16:32.824Z,12.83
2022-09-29T11:19:04.971Z,12.72
2022-09-29T11:22:10.312Z,12.51
2022-09-29T11:24:53.820Z,12.38
2022-09-29T11:27:33.184Z,12.43
2022-09-29T11:30:06.409Z,12.76
2022-09-29T11:32:47.370Z,13.17
2022-09-29T11:35:25.854Z,12.90
2022-09-29T11:38:08.283Z,13.26
2022-09-29T11:40:45.449Z,13.16
2022-09-29T11:43:27.571Z,13.08
2022-09-29T11:46:04.472Z,12.75
2022-09-29T11:49:05.560Z,12.96
2022-09-29T11:51:49.478Z,12.86
2022-09-29T11:54:38.170Z,12.67
2022-09-29T11:57:18.636Z,12.91
2022-09-29T12:00:00.724Z,13.17
2022-09-29T12:02:57.101Z,13.05
2022-09-29T12:05:28.802Z,13.08
2022-09-29T12:08:10.601Z,13.32
2022-09-29T12:10:51.613Z,13.21
2022-09-29T12:13:36.585Z,13.36
2022-09-29T12:16:09.116Z,13.16
2022-09-29T12:18:40.580Z,12.96
2022-09-29T12:21:11.872Z,12.79
2022-09-29T12:23:43.963Z,12.83
2022-09-29T12:26:15.224Z,12.49
2022-09-29T12:28:49.733Z,12.36
2022-09-29T12:31:23.379Z,12.26
2022-09-29T12:33:56.325Z,12.08
2022-09-29T12:36:32.962Z,12.03
2022-09-29T12:39:10.041Z,12.14
2022-09-29T12:41:40.289Z,12.32
2022-09-29T12:44:18.191Z,12.48
2022-09-29T12:46:49.979Z,12.56
2022-09-29T12:49:21.207Z,12.72
2022-09-29T12:51:49.544Z,12.75
2022-09-29T12:54:20.696Z,12.76
2022-09-29T12:56:54.243Z,12.90
2022-09-29T12:59:32.353Z,13.05
2022-09-29T13:02:01.265Z,12.95
2022-09-29T13:04:48.625Z,13.00
2022-09-29T13:07:41.755Z,13.11
2022-09-29T13:10:35.677Z,13.05
2022-09-29T13:13:29.940Z,12.95
2022-09-29T13:16:06.031Z,12.81
2022-09-29T13:19:00.216Z,12.74
2022-09-29T13:21:41.782Z,13.09
2022-09-29T13:24:33.557Z,12.89
2022-09-29T13:27:25.198Z,13.32
2022-09-29T13:29:56.275Z,13.44
2022-09-29T13:32:24.338Z,13.66
2022-09-29T13:34:55.320Z,13.88
2022-09-29T13:37:24.807Z,13.93
2022-09-29T13:40:01.504Z,14.15
2022-09-29T13:42:49.644Z,14.01
2022-09-29T13:45:32.488Z,13.67
2022-09-29T13:48:01.657Z,13.95
2022-09-29T13:50:42.638Z,13.53
2022-09-29T13:53:32.372Z,13.29
2022-09-29T13:56:11.196Z,13.83
2022-09-29T13:58:58.284Z,13.98
2022-09-29T14:01:34.363Z,13.98
2022-09-29T14:04:45.463Z,13.96
2022-09-29T14:07:34.148Z,14.17
2022-09-29T14:10:13.673Z,13.66
2022-09-29T14:12:41.642Z,13.45
2022-09-29T14:15:12.923Z,13.27
2022-09-29T14:17:46.031Z,13.07
2022-09-29T14:20:18.930Z,13.02
2022-09-29T14:22:56.119Z,12.77
2022-09-29T14:25:52.447Z,12.70
2022-09-29T14:28:23.894Z,12.93
2022-09-29T14:30:54.137Z,12.63
2022-09-29T14:33:24.974Z,12.65
2022-09-29T14:36:01.940Z,12.78
2022-09-29T14:38:33.553Z,12.58
2022-09-29T14:41:02.931Z,12.53
2022-09-29T14:43:40.283Z,12.71
2022-09-29T14:46:39.574Z,12.44
2022-09-29T14:49:38.868Z,12.38
2022-09-29T14:52:16.115Z,12.54
2022-09-29T14:54:56.904Z,12.71
2022-09-29T14:57:34.438Z,12.92
2022-09-29T15:00:11.175Z,13.15
2022-09-29T15:02:42.614Z,12.92
2022-09-29T15:05:14.387Z,12.65
2022-09-29T15:07:42.155Z,12.71
2022-09-29T15:10:22.571Z,12.33
2022-09-29T15:12:49.154Z,12.11
2022-09-29T15:15:29.544Z,12.29
2022-09-29T15:18:05.911Z,12.27
2022-09-29T15:20:33.913Z,12.18
2022-09-29T15:23:17.620Z,12.42
2022-09-29T15:25:46.454Z,12.38
2022-09-29T15:28:16.945Z,12.31
2022-09-29T15:30:44.430Z,11.99
2022-09-29T15:33:20.923Z,12.05
2022-09-29T15:35:51.446Z,11.83
2022-09-29T15:38:32.362Z,11.99
2022-09-29T15:41:03.123Z,11.94
2022-09-29T15:43:38.622Z,11.93
2022-09-29T15:46:17.832Z,12.05
2022-09-29T15:49:06.243Z,12.06
2022-09-29T15:51:32.883Z,12.07
2022-09-29T15:54:01.001Z,12.04
2022-09-29T15:56:31.597Z,11.73
2022-09-29T15:58:58.590Z,11.64
2022-09-29T16:01:25.378Z,11.61
2022-09-29T16:03:55.269Z,11.60
2022-09-29T16:06:27.764Z,11.58
2022-09-29T16:08:57.153Z,11.46
2022-09-29T16:11:26.812Z,11.42
2022-09-29T16:14:00.132Z,11.24
2022-09-29T16:16:31.779Z,11.15
2022-09-29T16:19:03.432Z,11.18
2022-09-29T16:21:35.305Z,11.21
2022-09-29T16:24:19.796Z,11.33
2022-09-29T16:26:48.347Z,11.25
2022-09-29T16:29:32.145Z,11.00
2022-09-29T16:32:00.008Z,10.94
2022-09-29T16:34:32.972Z,10.89
2022-09-29T16:37:02.498Z,10.80
2022-09-29T16:39:31.156Z,10.77
2022-09-29T16:41:59.880Z,10.75
2022-09-29T16:44:30.451Z,10.73
2022-09-29T16:47:00.352Z,10.66
2022-09-29T16:49:29.634Z,10.63
2022-09-29T16:51:58.940Z,10.66
2022-09-29T16:54:28.131Z,10.64
2022-09-29T16:57:18.021Z,10.44
2022-09-29T16:59:46.171Z,10.48
2022-09-29T17:02:13.563Z,10.42
2022-09-29T17:04:40.399Z,10.34
2022-09-29T17:07:12.478Z,10.26
2022-09-29T17:09:39.172Z,10.24
2022-09-29T17:12:05.738Z,10.26
2022-09-29T17:14:32.267Z,10.17
2022-09-29T17:17:00.227Z,10.08
2022-09-29T17:19:26.777Z,10.03
2022-09-29T17:21:54.770Z,9.95
2022-09-29T17:24:21.715Z,9.96
2022-09-29T17:26:48.681Z,9.93
2022-09-29T17:29:15.229Z,9.88
2022-09-29T17:31:41.775Z,9.83
2022-09-29T17:34:09.649Z,9.85
2022-09-29T17:36:38.359Z,9.75
2022-09-29T17:39:04.907Z,9.71
2022-09-29T17:41:31.474Z,9.69
2022-09-29T17:43:58.229Z,9.62
2022-09-29T17:46:24.932Z,9.64
2022-09-29T17:48:51.542Z,9.59
2022-09-29T17:51:19.478Z,9.56
2022-09-29T17:53:46.503Z,9.51
2022-09-29T17:56:19.838Z,9.43
2022-09-29T17:58:46.404Z,9.38
2022-09-29T18:01:13.134Z,9.42
2022-09-29T18:03:40.197Z,9.38
2022-09-29T18:06:06.910Z,9.31
2022-09-29T18:08:34.801Z,9.25
2022-09-29T18:11:01.769Z,9.24
2022-09-29T18:13:29.986Z,9.26
2022-09-29T18:15:57.898Z,9.20
2022-09-29T18:18:25.120Z,9.17
2022-09-29T18:20:51.695Z,9.15
2022-09-29T18:23:19.277Z,9.12
2022-09-29T18:25:49.282Z,9.17
2022-09-29T18:28:16.925Z,9.16
2022-09-29T18:30:46.304Z,9.14
2022-09-29T18:33:14.664Z,9.12
2022-09-29T18:35:43.315Z,9.07
2022-09-29T18:38:10.057Z,9.04
2022-09-29T18:40:38.060Z,9.00
2022-09-29T18:43:06.482Z,9.01
2022-09-29T18:45:37.385Z,8.96
2022-09-29T18:48:06.483Z,8.94
2022-09-29T18:50:35.099Z,8.97
2022-09-29T18:53:01.679Z,8.82
2022-09-29T18:55:29.947Z,8.84
2022-09-29T18:57:58.091Z,8.82
2022-09-29T19:00:27.885Z,8.77
2022-09-29T19:02:54.576Z,8.76
2022-09-29T19:05:23.681Z,8.71
2022-09-29T19:07:54.069Z,8.65
2022-09-29T19:10:21.361Z,8.68
2022-09-29T19:12:47.885Z,8.59
2022-09-29T19:15:16.185Z,8.56
2022-09-29T19:17:44.848Z,8.59
2022-09-29T19:20:12.571Z,8.63
2022-09-29T19:22:39.548Z,8.64
2022-09-29T19:25:06.817Z,8.58
2022-09-29T19:27:33.396Z,8.63
2022-09-29T19:30:03.210Z,8.60
2022-09-29T19:32:30.285Z,8.61
2022-09-29T19:34:58.252Z,8.64
2022-09-29T19:37:25.093Z,8.61
2022-09-29T19:39:51.774Z,8.61
2022-09-29T19:42:18.822Z,8.57
2022-09-29T19:44:45.393Z,8.56
2022-09-29T19:47:12.012Z,8.55
2022-09-29T19:49:38.541Z,8.63
2022-09-29T19:52:06.608Z,8.64
2022-09-29T19:54:35.938Z,8.63
2022-09-29T19:57:04.699Z,8.61
2022-09-29T19:59:33.385Z,8.62
2022-09-29T20:02:01.307Z,8.58
2022-09-29T20:04:30.933Z,8.60
2022-09-29T20:06:57.956Z,8.61
2022-09-29T20:09:26.631Z,8.56
2022-09-29T20:11:53.918Z,8.48
2022-09-29T20:14:22.670Z,8.46
2022-09-29T20:16:51.312Z,8.44
2022-09-29T20:19:20.488Z,8.45
2022-09-29T20:21:48.596Z,8.43
2022-09-29T20:24:16.879Z,8.36
2022-09-29T20:26:46.494Z,8.41
2022-09-29T20:29:14.701Z,8.37
2022-09-29T20:31:41.519Z,8.32
2022-09-29T20:34:11.096Z,8.36
2022-09-29T20:36:37.862Z,8.36
2022-09-29T20:39:04.561Z,8.35
2022-09-29T20:41:31.157Z,8.31
2022-09-29T20:43:59.051Z,8.28
2022-09-29T20:46:27.774Z,8.38
2022-09-29T20:48:56.348Z,8.35
2022-09-29T20:51:24.725Z,8.36
2022-09-29T20:53:53.188Z,8.31
2022-09-29T20:56:19.956Z,8.31
2022-09-29T20:58:49.161Z,8.23
2022-09-29T21:01:19.275Z,8.31
2022-09-29T21:03:48.751Z,8.25
2022-09-29T21:06:15.490Z,8.26
2022-09-29T21:08:42.041Z,8.30
2022-09-29T21:11:08.829Z,8.28
2022-09-29T21:13:35.477Z,8.29
2022-09-29T21:16:02.551Z,8.25
2022-09-29T21:18:31.220Z,8.22
2022-09-29T21:20:59.451Z,8.21
2022-09-29T21:23:27.031Z,8.19
2022-09-29T21:26:01.458Z,8.17
2022-09-29T21:28:28.210Z,8.27
2022-09-29T21:31:02.497Z,8.25
2022-09-29T21:33:30.969Z,8.26
2022-09-29T21:35:58.159Z,8.24
2022-09-29T21:38:24.792Z,8.22
2022-09-29T21:40:51.315Z,8.21
2022-09-29T21:43:17.836Z,8.19
2022-09-29T21:45:44.374Z,8.16
2022-09-29T21:48:10.891Z,8.13
2022-09-29T21:50:38.802Z,8.13
2022-09-29T21:53:05.334Z,8.12
2022-09-29T21:55:32.062Z,8.11
2022-09-29T21:57:58.580Z,8.17
2022-09-29T22:00:25.169Z,8.20
2022-09-29T22:02:51.772Z,8.23
2022-09-29T22:05:18.359Z,8.21
2022-09-29T22:07:46.382Z,8.26
2022-09-29T22:10:12.948Z,8.26
2022-09-29T22:12:39.565Z,8.24
2022-09-29T22:15:07.513Z,8.26
2022-09-29T22:17:34.049Z,8.29
2022-09-29T22:20:01.063Z,8.32
2022-09-29T22:22:27.592Z,8.19
2022-09-29T22:24:55.511Z,8.10
2022-09-29T22:27:22.506Z,8.11
2022-09-29T22:29:49.073Z,8.14
2022-09-29T22:32:15.587Z,8.06
2022-09-29T22:34:42.149Z,8.12
2022-09-29T22:37:08.670Z,8.18
2022-09-29T22:39:35.217Z,8.14
2022-09-29T22:42:03.364Z,8.23
2022-09-29T22:44:29.922Z,8.25
2022-09-29T22:46:56.562Z,8.24
2022-09-29T22:49:23.242Z,8.28
2022-09-29T22:51:49.883Z,8.31
2022-09-29T22:54:16.447Z,8.21
2022-09-29T22:56:42.985Z,8.15
2022-09-29T22:59:10.943Z,8.23
2022-09-29T23:01:37.597Z,8.25
2022-09-29T23:04:04.431Z,8.18
2022-09-29T23:06:31.256Z,8.08
2022-09-29T23:08:57.933Z,8.15
2022-09-29T23:11:24.545Z,8.06
2022-09-29T23:13:52.056Z,8.11
2022-09-29T23:16:20.022Z,8.06
2022-09-29T23:18:46.820Z,8.06
2022-09-29T23:21:15.041Z,8.01
2022-09-29T23:23:41.689Z,7.98
2022-09-29T23:26:08.259Z,8.01
2022-09-29T23:28:34.817Z,7.92
2022-09-29T23:31:04.914Z,7.86
2022-09-29T23:33:33.141Z,8.00
2022-09-29T23:36:08.211Z,8.01
2022-09-29T23:38:34.771Z,7.99
2022-09-29T23:41:01.444Z,8.02
2022-09-29T23:43:27.986Z,8.05
2022-09-29T23:45:54.662Z,7.94
2022-09-29T23:48:21.231Z,7.90
2022-09-29T23:50:49.149Z,7.85
2022-09-29T23:53:15.667Z,7.93
2022-09-29T23:55:42.269Z,7.84
2022-09-29T23:58:08.802Z,7.85
